Time;durP1;ratioP1;P1;durP2;ratioP2;P2;SDS_P1;SDS_P2;PMS_P1;PMS_P2;Temp;Humidity;BMP_temperature;BMP_pressure;BME280_temperature;BME280_humidity;BME280_pressure;Samples;Min_cycle;Max_cycle;Signal;HPM_P1;HPM_P2
2022/07/05 04:05:30;;;;;;;3.50;3.20;;;14.90;99.90;;;;;;4992188;28;20481;-68
2022/07/05 04:07:56;;;;;;;3.80;3.40;;;15.00;99.90;;;;;;4996135;28;20407;-69
2022/07/05 04:10:23;;;;;;;3.90;3.60;;;15.00;99.90;;;;;;4996031;28;20175;-68
2022/07/05 04:12:48;;;;;;;3.90;3.60;;;15.00;99.90;;;;;;4995698;28;20257;-68
2022/07/05 04:15:14;;;;;;;3.20;3.00;;;15.10;99.90;;;;;;4994406;28;20964;-68
2022/07/05 04:17:51;;;;;;;4.43;3.90;;;15.10;99.90;;;;;;4995440;28;20179;-68
2022/07/05 04:20:17;;;;;;;4.20;3.80;;;15.20;99.90;;;;;;4995479;28;20469;-68
2022/07/05 04:22:43;;;;;;;3.37;3.17;;;15.50;99.90;;;;;;4994227;28;20899;-69
2022/07/05 04:25:18;;;;;;;4.07;3.77;;;15.80;99.90;;;;;;4995686;28;20423;-69
2022/07/05 04:27:49;;;;;;;4.23;3.93;;;16.20;99.90;;;;;;4995981;28;20164;-69
2022/07/05 04:30:16;;;;;;;3.97;3.67;;;16.50;99.90;;;;;;4995718;28;20503;-69
2022/07/05 04:32:42;;;;;;;3.90;3.40;;;16.70;99.90;;;;;;4994651;28;20397;-69
2022/07/05 04:35:09;;;;;;;3.57;3.30;;;16.80;99.90;;;;;;4994641;28;20931;-68
2022/07/05 04:37:35;;;;;;;3.97;3.57;;;16.80;99.90;;;;;;4995542;28;20177;-68
2022/07/05 04:40:01;;;;;;;3.27;3.07;;;16.80;99.90;;;;;;4994000;28;20434;-68
2022/07/05 04:42:26;;;;;;;3.40;3.20;;;16.90;99.90;;;;;;4995229;28;20508;-69
2022/07/05 04:44:52;;;;;;;3.20;3.00;;;17.10;99.90;;;;;;4994327;28;20293;-69
2022/07/05 04:47:18;;;;;;;3.80;3.50;;;17.20;99.90;;;;;;4994892;28;20192;-69
2022/07/05 04:49:43;;;;;;;3.77;3.37;;;17.30;99.90;;;;;;4994902;28;20205;-69
2022/07/05 04:52:09;;;;;;;4.00;3.70;;;17.50;99.90;;;;;;4994926;28;20171;-69
2022/07/05 04:54:36;;;;;;;7.57;3.47;;;17.70;99.90;;;;;;4995080;28;20266;-69
2022/07/05 04:57:02;;;;;;;4.10;3.80;;;17.80;99.90;;;;;;4995281;28;20164;-69
2022/07/05 04:59:27;;;;;;;4.70;4.20;;;17.90;99.90;;;;;;4994961;28;21049;-69
2022/07/05 05:01:53;;;;;;;3.60;3.40;;;17.90;99.90;;;;;;4994529;28;20466;-68
2022/07/05 05:04:19;;;;;;;4.20;3.90;;;18.00;99.90;;;;;;4994365;28;20218;-70
2022/07/05 05:06:44;;;;;;;3.50;3.30;;;18.00;99.90;;;;;;4994750;28;20332;-70
2022/07/05 05:09:10;;;;;;;4.30;3.90;;;18.10;99.90;;;;;;4994769;28;20189;-69
2022/07/05 05:11:35;;;;;;;3.67;3.47;;;18.10;99.90;;;;;;4994849;28;20203;-69
2022/07/05 05:14:01;;;;;;;3.40;3.20;;;18.10;99.90;;;;;;4994072;28;20322;-70
2022/07/05 05:16:27;;;;;;;4.70;3.27;;;18.20;99.90;;;;;;4993318;28;20182;-70
2022/07/05 05:18:52;;;;;;;3.67;3.37;;;18.30;99.90;;;;;;4993342;28;20623;-70
2022/07/05 05:21:18;;;;;;;4.70;4.30;;;18.50;99.90;;;;;;4994539;28;20203;-70
2022/07/05 05:23:43;;;;;;;4.13;3.83;;;18.70;99.90;;;;;;4994367;28;20230;-70
2022/07/05 05:26:09;;;;;;;3.50;3.30;;;18.90;99.90;;;;;;4994602;28;20640;-70
2022/07/05 05:28:35;;;;;;;4.10;3.80;;;19.00;99.90;;;;;;4994510;28;20163;-68
2022/07/05 05:31:00;;;;;;;5.17;4.13;;;19.10;99.90;;;;;;4988798;28;20212;-68
2022/07/05 05:33:26;;;;;;;5.80;4.00;;;19.10;99.90;;;;;;4974703;28;20227;-69
2022/07/05 05:35:52;;;;;;;4.30;4.00;;;19.20;99.90;;;;;;4975337;28;20227;-69
2022/07/05 05:38:17;;;;;;;3.57;3.27;;;19.20;99.90;;;;;;4974890;28;20176;-69
2022/07/05 05:40:44;;;;;;;4.50;4.20;;;19.10;99.90;;;;;;4974498;28;20207;-69
2022/07/05 05:43:11;;;;;;;3.50;3.23;;;19.20;99.90;;;;;;4974437;28;20625;-69
2022/07/05 05:45:37;;;;;;;6.37;3.60;;;19.30;99.90;;;;;;4977749;28;20445;-69
2022/07/05 05:48:03;;;;;;;4.27;3.87;;;19.30;99.90;;;;;;4994105;28;20183;-68
2022/07/05 05:50:31;;;;;;;3.90;3.60;;;19.30;99.90;;;;;;4994367;28;20176;-69
2022/07/05 05:52:57;;;;;;;4.47;4.07;;;19.30;99.90;;;;;;4993716;28;20411;-68
2022/07/05 05:55:24;;;;;;;3.37;3.13;;;19.50;99.90;;;;;;4993965;28;20412;-65
2022/07/05 05:57:51;;;;;;;3.33;3.13;;;19.70;99.90;;;;;;4994105;28;20932;-65
2022/07/05 06:00:17;;;;;;;3.03;2.73;;;19.90;99.90;;;;;;4993361;28;20473;-66
2022/07/05 06:02:45;;;;;;;3.80;3.50;;;20.00;99.90;;;;;;4993343;28;20413;-66
2022/07/05 06:05:11;;;;;;;2.73;2.53;;;20.10;99.90;;;;;;4993899;28;20463;-66
2022/07/05 06:07:51;;;;;;;2.90;2.70;;;20.20;99.90;;;;;;4992843;28;20450;-65
2022/07/05 06:10:26;;;;;;;2.30;2.20;;;20.40;99.90;;;;;;4993807;28;20752;-66
2022/07/05 06:12:54;;;;;;;2.53;2.33;;;20.40;99.90;;;;;;4993584;28;20384;-66
2022/07/05 06:15:20;;;;;;;2.47;2.27;;;20.40;99.90;;;;;;4993504;28;20459;-65
2022/07/05 06:17:47;;;;;;;1.87;1.77;;;20.40;99.90;;;;;;4991932;28;20888;-65
2022/07/05 06:20:15;;;;;;;2.50;2.30;;;20.50;99.90;;;;;;4981164;28;20484;-66
2022/07/05 06:22:41;;;;;;;2.60;2.30;;;20.50;99.90;;;;;;4980697;28;20407;-66
2022/07/05 06:25:08;;;;;;;2.13;2.03;;;20.60;99.90;;;;;;4982175;28;20442;-66
2022/07/05 06:27:38;;;;;;;1.83;1.73;;;20.60;99.90;;;;;;4983673;28;20435;-66
2022/07/05 06:30:05;;;;;;;2.20;1.70;;;20.60;99.30;;;;;;4983981;28;20402;-66
2022/07/05 06:32:30;;;;;;;1.80;1.70;;;20.60;98.20;;;;;;4984329;28;20962;-66
2022/07/05 06:34:56;;;;;;;1.80;1.70;;;20.60;99.30;;;;;;4983849;28;20442;-66
2022/07/05 06:37:22;;;;;;;1.70;1.60;;;20.70;99.40;;;;;;4983643;28;20230;-67
2022/07/05 06:39:47;;;;;;;1.60;1.50;;;20.70;96.80;;;;;;4981913;28;20168;-67
2022/07/05 06:42:13;;;;;;;6.10;1.77;;;20.70;96.00;;;;;;4982584;28;20267;-66
2022/07/05 06:44:39;;;;;;;2.50;2.30;;;20.70;96.30;;;;;;4981870;28;20191;-66
2022/07/05 06:47:04;;;;;;;3.43;3.13;;;20.80;97.10;;;;;;4983406;28;20179;-66
2022/07/05 06:49:30;;;;;;;1.87;1.77;;;21.00;96.90;;;;;;4981947;28;20220;-66
2022/07/05 06:51:55;;;;;;;1.70;1.60;;;21.00;97.00;;;;;;4982180;28;20168;-66
2022/07/05 06:54:24;;;;;;;1.33;1.33;;;21.10;96.20;;;;;;4983097;28;20192;-69
2022/07/05 06:56:49;;;;;;;1.60;1.60;;;21.10;94.90;;;;;;4982028;28;20231;-65
2022/07/05 06:59:15;;;;;;;1.50;1.43;;;21.20;95.70;;;;;;4982342;28;20387;-66
2022/07/05 07:01:40;;;;;;;2.07;1.97;;;21.40;96.10;;;;;;4983360;28;20305;-65
2022/07/05 07:04:06;;;;;;;2.50;1.80;;;21.60;96.40;;;;;;4980656;28;20216;-66
2022/07/05 07:06:32;;;;;;;1.87;1.77;;;21.80;95.90;;;;;;4982621;28;20179;-66
2022/07/05 07:11:41;;;;;;;2.20;2.10;;;22.10;95.00;;;;;;4986846;28;20207;-66
2022/07/05 07:14:07;;;;;;;3.17;1.70;;;22.30;94.00;;;;;;4987060;28;20417;-66
2022/07/05 07:16:33;;;;;;;1.93;1.80;;;22.40;93.60;;;;;;4986251;28;20182;-65
2022/07/05 07:18:58;;;;;;;2.10;1.77;;;22.50;93.50;;;;;;4986120;28;20643;-67
2022/07/05 07:21:24;;;;;;;1.97;1.87;;;22.60;94.20;;;;;;4984835;28;20230;-67
2022/07/05 07:23:50;;;;;;;1.30;1.30;;;22.70;95.00;;;;;;4984598;28;20195;-66
2022/07/05 07:26:15;;;;;;;2.00;1.90;;;23.00;93.00;;;;;;4985270;28;20640;-67
2022/07/05 07:28:41;;;;;;;1.90;1.80;;;23.20;93.20;;;;;;4984930;28;20292;-67
2022/07/05 07:31:07;;;;;;;3.13;1.53;;;23.40;93.70;;;;;;4986451;28;20538;-67
2022/07/05 07:33:33;;;;;;;2.37;2.27;;;23.80;92.60;;;;;;4984855;28;20200;-66
2022/07/05 07:35:59;;;;;;;2.27;2.17;;;24.20;91.70;;;;;;4985046;28;20430;-66
2022/07/05 07:38:25;;;;;;;2.33;2.13;;;24.80;90.80;;;;;;4986524;28;20175;-66
2022/07/05 07:40:52;;;;;;;1.60;1.50;;;25.60;90.30;;;;;;4984488;28;20426;-67
2022/07/05 07:43:18;;;;;;;7.80;6.60;;;26.40;86.60;;;;;;4984533;28;20397;-66
2022/07/05 07:45:43;;;;;;;2.60;2.13;;;27.40;84.10;;;;;;4985654;28;20460;-67
2022/07/05 07:48:09;;;;;;;2.47;1.70;;;28.50;78.20;;;;;;4984743;28;20176;-65
2022/07/05 07:50:35;;;;;;;2.20;2.10;;;29.80;78.00;;;;;;4985184;28;20188;-65
2022/07/05 07:53:00;;;;;;;1.93;1.83;;;31.20;74.80;;;;;;4984112;28;20230;-66
2022/07/05 07:55:26;;;;;;;1.90;1.80;;;32.40;66.20;;;;;;4987523;28;20179;-66
2022/07/05 07:57:52;;;;;;;2.20;2.00;;;33.40;63.40;;;;;;4984657;28;20182;-67
2022/07/05 08:00:18;;;;;;;2.30;2.20;;;34.30;61.70;;;;;;4984173;28;20250;-66
2022/07/05 08:02:44;;;;;;;3.93;1.90;;;34.70;57.90;;;;;;4982815;28;21306;-66
2022/07/05 08:05:09;;;;;;;2.10;2.00;;;35.10;57.50;;;;;;4986277;28;20211;-65
2022/07/05 08:07:38;;;;;;;2.40;2.30;;;35.90;55.70;;;;;;4985072;28;20188;-65
2022/07/05 08:10:05;;;;;;;2.40;2.30;;;36.30;54.80;;;;;;4983996;28;20259;-66
2022/07/05 08:12:30;;;;;;;2.10;2.00;;;36.70;54.40;;;;;;4985188;28;20442;-65
2022/07/05 08:14:56;;;;;;;2.43;2.30;;;37.10;54.80;;;;;;4984898;28;20424;-64
2022/07/05 08:17:21;;;;;;;2.40;2.30;;;37.00;54.10;;;;;;4983844;28;20314;-64
2022/07/05 08:22:31;;;;;;;2.33;2.20;;;36.30;54.20;;;;;;4983969;28;20183;-63
2022/07/05 08:24:57;;;;;;;1.90;1.80;;;36.60;54.30;;;;;;4984236;28;20434;-64
2022/07/05 08:27:26;;;;;;;2.10;2.00;;;36.50;52.90;;;;;;4986759;28;20180;-66
2022/07/05 08:29:52;;;;;;;2.20;2.10;;;36.20;52.10;;;;;;4984007;28;20548;-66
2022/07/05 08:32:17;;;;;;;2.30;2.20;;;36.50;54.00;;;;;;4983957;28;20411;-65
2022/07/05 08:34:43;;;;;;;3.17;2.33;;;37.30;53.80;;;;;;4989360;28;20200;-66
2022/07/05 08:37:09;;;;;;;3.47;2.53;;;38.20;52.70;;;;;;4985228;28;20180;-64
2022/07/05 08:39:35;;;;;;;2.63;2.43;;;38.70;50.60;;;;;;4984245;28;20187;-63
2022/07/05 08:42:01;;;;;;;2.93;2.70;;;38.70;49.80;;;;;;4983693;28;20454;-64
2022/07/05 08:44:29;;;;;;;2.30;2.20;;;39.00;50.00;;;;;;4984702;28;20203;-64
2022/07/05 08:46:56;;;;;;;2.00;1.90;;;38.80;49.90;;;;;;4984080;28;20449;-65
2022/07/05 08:49:24;;;;;;;1.97;1.90;;;38.60;48.70;;;;;;4984189;28;20419;-64
2022/07/05 08:54:31;;;;;;;2.10;2.00;;;38.50;48.70;;;;;;4991928;28;20835;-65
2022/07/05 08:56:57;;;;;;;2.30;2.17;;;38.40;49.10;;;;;;4993332;28;20413;-65
2022/07/05 08:59:23;;;;;;;2.23;2.03;;;38.30;48.20;;;;;;4993113;28;20411;-64
2022/07/05 09:01:49;;;;;;;2.67;2.30;;;37.90;48.50;;;;;;4990851;28;20655;-65
2022/07/05 09:04:17;;;;;;;1.77;1.70;;;37.10;48.70;;;;;;4992823;28;20195;-64
2022/07/05 09:06:47;;;;;;;2.10;2.00;;;37.10;50.20;;;;;;4993578;28;20778;-65
2022/07/05 09:09:16;;;;;;;2.43;2.23;;;37.30;47.90;;;;;;4991177;28;20495;-64
2022/07/05 09:11:44;;;;;;;2.10;2.00;;;37.30;49.40;;;;;;4992368;28;20427;-63
2022/07/05 09:14:39;;;;;;;2.40;2.30;;;37.80;49.40;;;;;;4992142;28;20934;-65
2022/07/05 09:17:05;;;;;;;2.00;1.90;;;38.50;47.20;;;;;;4991754;28;20443;-65
2022/07/05 09:19:31;;;;;;;2.27;2.17;;;38.70;46.80;;;;;;4992616;28;20935;-66
2022/07/05 09:22:04;;;;;;;1.83;1.83;;;38.90;48.10;;;;;;4992966;28;20450;-66
2022/07/05 09:24:31;;;;;;;2.53;2.43;;;39.00;45.30;;;;;;4993125;28;20517;-66
2022/07/05 09:27:03;;;;;;;3.17;2.10;;;39.20;45.70;;;;;;4993493;28;20424;-66
2022/07/05 09:29:29;;;;;;;2.00;1.90;;;39.10;46.20;;;;;;4993888;28;20441;-66
2022/07/05 09:31:54;;;;;;;2.20;1.87;;;39.10;46.80;;;;;;4992111;28;20501;-66
2022/07/05 09:34:21;;;;;;;2.07;1.87;;;39.60;45.90;;;;;;4991643;28;20941;-66
2022/07/05 09:36:47;;;;;;;2.07;2.00;;;39.90;44.10;;;;;;4991000;28;20227;-66
2022/07/05 09:39:12;;;;;;;2.30;2.20;;;40.20;44.00;;;;;;4992593;28;21226;-66
2022/07/05 09:41:38;;;;;;;2.30;2.20;;;40.40;43.40;;;;;;4992377;28;20678;-66
2022/07/05 09:44:05;;;;;;;2.00;2.00;;;40.50;42.60;;;;;;4992599;28;20190;-65
2022/07/05 09:46:31;;;;;;;2.20;2.10;;;40.50;41.80;;;;;;4992510;28;20229;-65
2022/07/05 09:48:56;;;;;;;2.30;2.20;;;40.40;43.20;;;;;;4992540;28;20419;-65
2022/07/05 09:51:22;;;;;;;2.20;2.20;;;40.10;43.40;;;;;;4992790;28;20413;-66
2022/07/05 09:53:53;;;;;;;2.80;2.17;;;39.60;42.90;;;;;;4991872;28;20202;-66
2022/07/05 09:56:20;;;;;;;2.40;2.30;;;39.30;43.90;;;;;;4991449;28;20172;-67
2022/07/05 09:58:46;;;;;;;1.90;1.90;;;38.90;43.30;;;;;;4992570;28;20422;-66
2022/07/05 10:01:24;;;;;;;2.43;1.83;;;38.60;43.60;;;;;;4992601;28;20450;-65
2022/07/05 10:03:57;;;;;;;2.10;2.00;;;38.80;43.20;;;;;;4989906;28;20545;-65
2022/07/05 10:06:25;;;;;;;1.83;1.73;;;38.80;42.80;;;;;;4992553;28;20419;-66
2022/07/05 10:08:52;;;;;;;2.00;1.90;;;38.80;42.70;;;;;;4991571;28;20425;-66
2022/07/05 10:11:18;;;;;;;4.23;2.20;;;38.50;43.80;;;;;;4990824;28;21297;-66
2022/07/05 10:13:47;;;;;;;1.87;1.80;;;38.40;43.30;;;;;;4988980;28;20438;-66
2022/07/05 10:16:14;;;;;;;1.90;1.80;;;38.60;43.40;;;;;;4992125;28;20830;-65
2022/07/05 10:18:40;;;;;;;2.10;2.00;;;38.70;43.50;;;;;;4991136;28;20426;-66
2022/07/05 10:21:14;;;;;;;2.10;2.00;;;38.40;43.40;;;;;;4991958;28;20489;-65
2022/07/05 10:23:47;;;;;;;1.53;1.53;;;37.90;45.10;;;;;;4991819;28;20427;-65
2022/07/05 10:26:14;;;;;;;1.20;1.20;;;36.40;42.90;;;;;;4989932;28;20775;-63
2022/07/05 10:28:41;;;;;;;1.20;1.20;;;35.00;43.30;;;;;;4990393;28;20418;-65
2022/07/05 10:31:09;;;;;;;1.30;1.20;;;34.60;43.70;;;;;;4992183;28;20414;-65
2022/07/05 10:33:35;;;;;;;1.40;1.30;;;34.10;42.50;;;;;;4992058;28;20489;-66
2022/07/05 10:36:01;;;;;;;1.50;1.40;;;33.10;44.00;;;;;;4991703;28;20518;-65
2022/07/05 10:38:27;;;;;;;1.20;1.20;;;32.30;45.00;;;;;;4991822;28;20175;-66
2022/07/05 10:40:57;;;;;;;3.27;2.97;;;32.20;47.30;;;;;;4992108;28;20457;-65
2022/07/05 10:43:24;;;;;;;3.43;1.50;;;32.00;45.90;;;;;;4993748;28;20415;-66
2022/07/05 10:45:51;;;;;;;1.30;1.20;;;32.10;45.40;;;;;;4995803;28;20738;-66
2022/07/05 10:48:27;;;;;;;1.20;1.20;;;32.20;44.90;;;;;;4996315;28;20771;-65
2022/07/05 10:50:58;;;;;;;2.47;1.30;;;32.40;46.00;;;;;;4993598;28;20572;-65
2022/07/05 10:53:48;;;;;;;1.47;1.37;;;32.80;45.60;;;;;;4994921;28;20988;-66
2022/07/05 10:56:14;;;;;;;1.40;1.30;;;32.80;45.00;;;;;;4993671;28;20786;-66
2022/07/05 10:58:44;;;;;;;1.93;1.53;;;32.90;45.90;;;;;;4995953;28;20448;-66
2022/07/05 11:01:12;;;;;;;1.30;1.30;;;33.00;44.70;;;;;;4995113;28;20989;-66
2022/07/05 11:03:55;;;;;;;1.73;1.60;;;32.80;45.40;;;;;;4995247;28;20450;-65
2022/07/05 11:06:22;;;;;;;1.30;1.30;;;32.90;48.20;;;;;;4994310;28;20417;-67
2022/07/05 11:08:57;;;;;;;1.50;1.30;;;33.20;48.70;;;;;;4995667;28;20902;-65
2022/07/05 11:11:44;;;;;;;1.50;1.40;;;33.50;48.00;;;;;;4995666;28;20921;-66
2022/07/05 11:14:22;;;;;;;1.30;1.20;;;34.30;47.50;;;;;;4994751;28;20448;-65
2022/07/05 11:17:08;;;;;;;1.50;1.40;;;34.80;46.90;;;;;;4995575;28;20430;-65
2022/07/05 11:19:54;;;;;;;1.43;1.43;;;34.90;45.70;;;;;;4993333;28;20791;-65
2022/07/05 11:22:20;;;;;;;1.30;1.30;;;34.40;45.50;;;;;;4993306;28;20438;-65
2022/07/05 11:24:47;;;;;;;1.50;1.40;;;33.70;46.30;;;;;;4994907;28;20424;-65
2022/07/05 11:27:12;;;;;;;1.80;1.20;;;32.70;46.60;;;;;;4995663;28;20349;-66
2022/07/05 11:29:44;;;;;;;1.20;1.20;;;31.90;48.00;;;;;;4996781;28;20410;-65
2022/07/05 11:32:14;;;;;;;1.37;1.30;;;31.20;49.10;;;;;;4996483;28;20187;-65
2022/07/05 11:34:40;;;;;;;1.40;1.40;;;30.70;50.10;;;;;;4995026;28;20806;-63
2022/07/05 11:37:33;;;;;;;1.20;1.10;;;30.30;50.70;;;;;;4995508;28;20923;-64
2022/07/05 11:40:11;;;;;;;1.30;1.27;;;29.90;48.70;;;;;;4996105;28;20425;-64
2022/07/05 11:42:47;;;;;;;1.80;1.70;;;29.60;48.60;;;;;;4995054;28;20444;-63
2022/07/05 11:45:13;;;;;;;1.37;1.37;;;29.20;47.60;;;;;;4994088;28;20420;-63
2022/07/05 11:47:39;;;;;;;1.20;1.20;;;28.80;48.20;;;;;;4995946;28;20430;-62
2022/07/05 11:50:06;;;;;;;1.20;1.20;;;28.60;51.40;;;;;;4996190;28;20422;-63
2022/07/05 11:52:33;;;;;;;1.70;1.47;;;28.60;52.20;;;;;;4995206;28;20497;-63
2022/07/05 11:55:09;;;;;;;1.03;1.03;;;28.60;53.00;;;;;;4994324;28;20408;-64
2022/07/05 11:57:35;;;;;;;1.13;1.13;;;28.40;51.80;;;;;;4990918;28;20426;-66
2022/07/05 12:00:02;;;;;;;1.10;1.10;;;28.40;50.70;;;;;;4994008;28;20413;-64
2022/07/05 12:02:28;;;;;;;0.93;0.93;;;28.30;50.20;;;;;;4995623;28;20896;-64
2022/07/05 12:04:56;;;;;;;1.00;1.00;;;28.20;51.60;;;;;;4995718;28;20552;-65
2022/07/05 12:07:28;;;;;;;1.50;1.10;;;28.20;50.70;;;;;;4996407;28;20197;-67
2022/07/05 12:12:42;;;;;;;1.10;1.10;;;28.10;50.30;;;;;;4995463;28;20449;-65
2022/07/05 12:15:12;;;;;;;1.40;1.30;;;28.20;49.50;;;;;;4995808;28;20448;-67
2022/07/05 12:17:40;;;;;;;1.10;1.10;;;28.10;52.40;;;;;;4994063;28;20412;-65
2022/07/05 12:20:08;;;;;;;1.07;1.07;;;28.20;51.40;;;;;;4995907;28;20778;-62
2022/07/05 12:22:36;;;;;;;1.47;1.37;;;28.10;52.90;;;;;;4995510;28;20505;-63
2022/07/05 12:25:03;;;;;;;6.83;2.13;;;28.10;50.80;;;;;;4995607;28;20498;-65
2022/07/05 12:27:30;;;;;;;1.20;1.20;;;28.00;53.90;;;;;;4995523;28;20389;-66
2022/07/05 12:29:56;;;;;;;1.87;1.77;;;28.00;51.50;;;;;;4995583;28;20417;-67
2022/07/05 12:32:22;;;;;;;1.73;1.50;;;28.00;53.00;;;;;;4994601;28;20399;-71
2022/07/05 12:34:48;;;;;;;1.20;1.20;;;28.00;54.00;;;;;;4995251;28;20397;-67
2022/07/05 12:37:24;;;;;;;1.13;1.10;;;28.10;52.40;;;;;;4995744;28;20205;-68
2022/07/05 12:40:01;;;;;;;1.30;1.30;;;28.20;52.50;;;;;;4995501;28;20215;-68
2022/07/05 12:42:34;;;;;;;1.50;1.40;;;28.20;52.30;;;;;;4994626;28;20393;-65
2022/07/05 12:45:11;;;;;;;1.20;1.20;;;28.20;53.20;;;;;;4994773;28;20435;-68
2022/07/05 12:47:48;;;;;;;1.20;1.20;;;28.20;52.00;;;;;;4994831;28;20426;-68
2022/07/05 12:50:14;;;;;;;3.50;1.30;;;28.00;52.60;;;;;;4994739;28;20434;-68
2022/07/05 12:58:01;;;;;;;2.53;2.00;;;27.90;53.90;;;;;;4994793;28;20871;-67
2022/07/05 12:58:33;;;;;;;1.97;1.53;;;27.80;54.10;;;;;;4994097;28;20442;-68
2022/07/05 13:00:58;;;;;;;1.17;1.17;;;27.80;54.70;;;;;;4994953;28;20454;-67
2022/07/05 13:03:24;;;;;;;1.10;1.10;;;27.70;52.90;;;;;;4994617;28;20436;-66
2022/07/05 13:06:02;;;;;;;1.20;1.20;;;27.70;55.20;;;;;;4994485;28;20172;-66
2022/07/05 13:08:29;;;;;;;1.47;1.37;;;27.70;54.20;;;;;;4994878;28;20176;-68
2022/07/05 13:10:55;;;;;;;4.00;1.20;;;27.70;52.40;;;;;;4994936;28;20411;-67
2022/07/05 13:13:20;;;;;;;1.47;1.40;;;27.60;52.80;;;;;;4993646;28;20531;-66
2022/07/05 13:15:46;;;;;;;1.70;1.60;;;27.50;54.80;;;;;;4993737;28;20240;-72
2022/07/05 13:18:22;;;;;;;1.53;1.43;;;27.50;56.00;;;;;;4994257;28;20173;-70
2022/07/05 13:20:49;;;;;;;1.70;1.40;;;27.50;55.60;;;;;;4993837;28;20640;-71
2022/07/05 13:23:15;;;;;;;1.97;1.83;;;27.60;53.80;;;;;;4994073;28;20405;-70
2022/07/05 13:25:41;;;;;;;1.43;1.37;;;27.70;54.50;;;;;;4994456;28;20383;-72
2022/07/05 13:28:06;;;;;;;1.80;1.67;;;27.70;55.90;;;;;;4994528;28;20250;-68
2022/07/05 13:30:32;;;;;;;1.50;1.40;;;27.70;55.60;;;;;;4994441;28;20184;-71
2022/07/05 13:32:57;;;;;;;2.17;1.93;;;27.80;55.70;;;;;;4994214;28;20179;-71
2022/07/05 13:35:23;;;;;;;1.60;1.50;;;27.90;56.50;;;;;;4994598;28;20644;-68
2022/07/05 13:37:48;;;;;;;1.83;1.70;;;27.90;54.80;;;;;;4993915;28;20179;-70
2022/07/05 13:40:14;;;;;;;1.70;1.60;;;27.90;54.10;;;;;;4994946;28;20204;-69
2022/07/05 13:42:40;;;;;;;1.47;1.37;;;27.80;54.10;;;;;;4993576;28;20169;-70
2022/07/05 13:45:06;;;;;;;1.70;1.50;;;27.80;55.90;;;;;;4997996;28;20196;-71
2022/07/05 13:47:31;;;;;;;2.07;1.50;;;27.80;56.20;;;;;;4996819;28;20231;-69
2022/07/05 13:52:41;;;;;;;1.43;1.40;;;27.70;54.50;;;;;;4994156;28;20527;-68
2022/07/05 13:55:07;;;;;;;1.40;1.30;;;27.70;54.40;;;;;;4994288;28;20423;-69
2022/07/05 13:57:33;;;;;;;1.30;1.30;;;27.60;54.30;;;;;;4994381;28;20231;-70
2022/07/05 13:59:58;;;;;;;1.43;1.43;;;27.60;55.40;;;;;;4994074;28;20399;-69
2022/07/05 14:02:24;;;;;;;2.87;1.70;;;27.60;55.40;;;;;;4993748;28;21006;-68
2022/07/05 14:04:50;;;;;;;1.90;1.80;;;27.70;55.50;;;;;;4994150;28;20189;-69
2022/07/05 14:07:16;;;;;;;1.93;1.83;;;27.80;55.50;;;;;;4994065;28;20165;-68
2022/07/05 14:09:41;;;;;;;1.30;1.30;;;27.70;55.60;;;;;;4994008;28;20529;-68
2022/07/05 14:12:07;;;;;;;1.53;1.53;;;27.70;55.90;;;;;;4993706;28;20390;-69
2022/07/05 14:14:32;;;;;;;1.57;1.50;;;27.70;55.10;;;;;;4993429;28;20205;-71
2022/07/05 14:16:58;;;;;;;1.60;1.30;;;27.70;55.20;;;;;;4993810;28;20547;-69
2022/07/05 14:19:24;;;;;;;1.40;1.40;;;27.70;53.60;;;;;;4994019;28;20327;-68
2022/07/05 14:21:49;;;;;;;1.80;1.70;;;27.60;53.90;;;;;;4993830;28;20555;-68
2022/07/05 14:24:15;;;;;;;1.63;1.50;;;27.50;54.30;;;;;;4993362;28;20200;-68
2022/07/05 14:26:41;;;;;;;1.83;1.73;;;27.40;55.60;;;;;;4993787;28;20177;-69
2022/07/05 14:29:07;;;;;;;2.60;1.90;;;27.30;54.80;;;;;;4993213;28;20168;-68
2022/07/05 14:31:32;;;;;;;2.27;2.17;;;27.30;56.10;;;;;;4993403;28;20440;-69
2022/07/05 14:33:58;;;;;;;1.67;1.67;;;27.30;56.90;;;;;;4993049;28;20197;-68
2022/07/05 14:36:24;;;;;;;3.50;1.93;;;27.30;56.20;;;;;;4993568;28;20175;-68
2022/07/05 14:38:49;;;;;;;1.90;1.80;;;27.40;56.40;;;;;;4993647;28;20180;-68
2022/07/05 14:41:16;;;;;;;1.80;1.70;;;27.40;55.30;;;;;;4993976;28;20713;-66
2022/07/05 14:43:41;;;;;;;2.00;1.90;;;27.40;55.60;;;;;;4992131;28;20183;-69
2022/07/05 14:46:07;;;;;;;1.90;1.80;;;27.30;54.20;;;;;;4993728;28;20385;-69
2022/07/05 14:48:33;;;;;;;3.00;1.90;;;27.30;54.60;;;;;;4992365;28;20543;-68
2022/07/05 14:50:59;;;;;;;1.77;1.67;;;27.30;55.90;;;;;;4993546;28;20397;-68
2022/07/05 14:53:24;;;;;;;2.40;2.20;;;27.20;54.90;;;;;;4992670;28;20290;-67
2022/07/05 14:55:50;;;;;;;2.10;2.00;;;27.20;54.30;;;;;;4993289;28;20194;-68
2022/07/05 14:58:16;;;;;;;2.20;2.00;;;27.10;54.40;;;;;;4993419;28;20186;-67
2022/07/05 15:00:41;;;;;;;2.23;1.67;;;27.00;53.20;;;;;;4993589;28;20282;-69
2022/07/05 15:03:09;;;;;;;2.90;2.63;;;26.90;54.10;;;;;;4993063;28;20265;-68
2022/07/05 15:05:38;;;;;;;2.00;1.90;;;26.90;55.20;;;;;;4993573;28;20168;-69
2022/07/05 15:08:04;;;;;;;3.27;2.70;;;26.90;54.20;;;;;;4993481;28;20507;-67
2022/07/05 15:10:30;;;;;;;2.40;1.93;;;26.90;54.70;;;;;;4993187;28;20903;-69
2022/07/05 15:12:55;;;;;;;1.90;1.80;;;26.90;56.40;;;;;;4993113;28;20417;-69
2022/07/05 15:15:21;;;;;;;2.23;2.03;;;27.00;56.20;;;;;;4993476;28;20176;-69
2022/07/05 15:17:46;;;;;;;4.67;1.70;;;27.00;55.50;;;;;;4993598;28;20263;-68
2022/07/05 15:20:12;;;;;;;1.93;1.83;;;27.00;55.60;;;;;;4992164;28;20671;-68
2022/07/05 15:22:38;;;;;;;2.10;2.00;;;27.00;55.20;;;;;;4992654;28;20180;-65
2022/07/05 15:25:04;;;;;;;1.47;1.37;;;26.90;55.50;;;;;;4992997;28;20509;-69
2022/07/05 15:27:32;;;;;;;3.13;3.03;;;26.90;55.80;;;;;;4993128;28;20642;-69
2022/07/05 15:29:58;;;;;;;2.10;2.00;;;26.90;54.60;;;;;;4995899;28;20414;-69
2022/07/05 15:32:26;;;;;;;1.83;1.73;;;26.90;54.10;;;;;;4996336;28;20414;-69
2022/07/05 15:34:52;;;;;;;1.73;1.60;;;26.80;54.40;;;;;;4995787;28;20206;-67
2022/07/05 15:37:19;;;;;;;1.73;1.63;;;26.80;56.30;;;;;;4996249;28;20398;-68
2022/07/05 15:39:44;;;;;;;1.63;1.53;;;26.80;55.80;;;;;;4995261;28;20187;-69
2022/07/05 15:42:10;;;;;;;1.80;1.70;;;26.80;56.00;;;;;;4996236;28;20458;-69
2022/07/05 15:44:36;;;;;;;1.60;1.50;;;26.80;56.40;;;;;;4996401;28;20192;-68
2022/07/05 15:47:09;;;;;;;2.00;1.87;;;26.80;56.50;;;;;;4995911;28;20172;-69
2022/07/05 15:49:35;;;;;;;1.80;1.70;;;26.80;56.00;;;;;;4996536;28;20290;-68
2022/07/05 15:52:01;;;;;;;1.53;1.50;;;26.80;56.30;;;;;;4996261;28;20413;-69
2022/07/05 15:54:27;;;;;;;2.30;2.20;;;26.70;55.40;;;;;;4995919;28;20257;-69
2022/07/05 15:56:53;;;;;;;3.07;2.23;;;26.70;55.90;;;;;;4995998;28;20906;-69
2022/07/05 15:59:19;;;;;;;2.03;1.93;;;26.60;56.20;;;;;;4996177;28;20411;-69
2022/07/05 16:01:45;;;;;;;1.80;1.70;;;26.60;56.20;;;;;;4995607;28;20425;-69
2022/07/05 16:04:10;;;;;;;2.17;2.07;;;26.60;55.60;;;;;;4994327;28;20696;-70
2022/07/05 16:06:36;;;;;;;1.70;1.70;;;26.60;55.30;;;;;;4996119;28;20255;-69
2022/07/05 16:09:02;;;;;;;1.70;1.60;;;26.50;54.70;;;;;;4995974;28;20182;-69
2022/07/05 16:11:28;;;;;;;2.00;1.90;;;26.50;55.70;;;;;;4996126;28;20167;-68
2022/07/05 16:13:54;;;;;;;1.63;1.53;;;26.50;56.00;;;;;;4995411;28;20930;-69
2022/07/05 16:16:19;;;;;;;2.83;2.20;;;26.50;55.90;;;;;;4995670;28;20538;-68
2022/07/05 16:18:47;;;;;;;4.30;3.37;;;26.40;55.70;;;;;;4995917;28;20180;-67
2022/07/05 16:21:15;;;;;;;1.90;1.80;;;26.40;56.40;;;;;;4995859;28;20198;-69
2022/07/05 16:23:43;;;;;;;1.90;1.80;;;26.30;56.10;;;;;;4995315;28;20568;-69
2022/07/05 16:26:10;;;;;;;1.40;1.40;;;26.30;56.00;;;;;;4995737;28;20381;-69
2022/07/05 16:28:36;;;;;;;2.07;1.97;;;26.30;55.60;;;;;;4995519;28;20402;-68
2022/07/05 16:31:03;;;;;;;1.90;1.80;;;26.30;55.50;;;;;;4995178;28;20806;-68
2022/07/05 16:33:38;;;;;;;2.80;2.60;;;26.30;56.30;;;;;;4995145;28;20434;-67
2022/07/05 16:36:09;;;;;;;2.87;2.57;;;26.20;55.40;;;;;;4994052;28;20520;-69
2022/07/05 16:38:35;;;;;;;1.83;1.73;;;26.20;55.70;;;;;;4994889;28;20410;-68
2022/07/05 16:41:02;;;;;;;2.33;2.10;;;26.20;55.80;;;;;;4993017;28;21005;-67
2022/07/05 16:43:28;;;;;;;1.90;1.80;;;26.20;56.00;;;;;;4994917;28;20451;-68
2022/07/05 16:45:53;;;;;;;2.20;2.10;;;26.10;56.40;;;;;;4994011;28;20428;-69
2022/07/05 16:48:20;;;;;;;2.20;2.00;;;26.10;56.20;;;;;;4995136;28;20374;-68
2022/07/05 16:50:47;;;;;;;3.57;3.27;;;26.10;56.20;;;;;;4994843;28;20214;-68
2022/07/05 16:53:13;;;;;;;2.70;2.50;;;26.00;56.20;;;;;;4994630;28;20511;-67
2022/07/05 16:55:38;;;;;;;1.80;1.70;;;26.00;56.40;;;;;;4995122;28;20891;-69
2022/07/05 16:58:04;;;;;;;1.90;1.80;;;25.90;55.10;;;;;;4994927;28;20203;-67
2022/07/05 17:00:30;;;;;;;1.83;1.73;;;25.90;55.70;;;;;;4994755;28;20203;-70
2022/07/05 17:02:56;;;;;;;1.60;1.57;;;25.90;55.90;;;;;;4994639;28;20234;-70
2022/07/05 17:05:22;;;;;;;1.83;1.67;;;25.80;55.00;;;;;;4994702;28;20509;-69
2022/07/05 17:07:50;;;;;;;1.40;1.40;;;25.80;55.40;;;;;;4995060;28;20965;-68
2022/07/05 17:10:16;;;;;;;3.93;3.63;;;25.80;55.00;;;;;;4995037;28;20258;-68